sensor_id;sensor_type;location;lat;lon;timestamp;temperature;humidity
16643;DHT22;8435;52.184;5.406;2023-05-27T00:00:22;13.60;91.00
16643;DHT22;8435;52.184;5.406;2023-05-27T00:02:49;13.60;91.10
16643;DHT22;8435;52.184;5.406;2023-05-27T00:05:16;13.50;91.10
16643;DHT22;8435;52.184;5.406;2023-05-27T00:07:43;13.50;91.10
16643;DHT22;8435;52.184;5.406;2023-05-27T00:10:10;13.50;91.10
16643;DHT22;8435;52.184;5.406;2023-05-27T00:12:36;13.40;91.20
16643;DHT22;8435;52.184;5.406;2023-05-27T00:15:04;13.40;91.30
16643;DHT22;8435;52.184;5.406;2023-05-27T00:17:32;13.40;91.30
16643;DHT22;8435;52.184;5.406;2023-05-27T00:20:03;13.30;91.40
16643;DHT22;8435;52.184;5.406;2023-05-27T00:22:34;13.30;91.40
16643;DHT22;8435;52.184;5.406;2023-05-27T00:25:02;13.30;91.70
16643;DHT22;8435;52.184;5.406;2023-05-27T00:27:29;13.30;91.40
16643;DHT22;8435;52.184;5.406;2023-05-27T00:29:56;13.20;91.40
16643;DHT22;8435;52.184;5.406;2023-05-27T00:32:23;13.20;91.50
16643;DHT22;8435;52.184;5.406;2023-05-27T00:34:51;13.20;91.60
16643;DHT22;8435;52.184;5.406;2023-05-27T00:37:18;13.20;91.60
16643;DHT22;8435;52.184;5.406;2023-05-27T00:39:44;13.10;91.60
16643;DHT22;8435;52.184;5.406;2023-05-27T00:42:15;13.10;91.70
16643;DHT22;8435;52.184;5.406;2023-05-27T00:44:42;13.10;91.70
16643;DHT22;8435;52.184;5.406;2023-05-27T00:47:08;13.00;91.70
16643;DHT22;8435;52.184;5.406;2023-05-27T00:49:35;13.10;91.80
16643;DHT22;8435;52.184;5.406;2023-05-27T00:52:04;13.00;91.80
16643;DHT22;8435;52.184;5.406;2023-05-27T00:54:31;13.00;91.90
16643;DHT22;8435;52.184;5.406;2023-05-27T00:56:58;12.90;91.90
16643;DHT22;8435;52.184;5.406;2023-05-27T00:59:27;12.90;91.90
16643;DHT22;8435;52.184;5.406;2023-05-27T01:01:55;12.90;92.00
16643;DHT22;8435;52.184;5.406;2023-05-27T01:04:23;12.80;92.00
16643;DHT22;8435;52.184;5.406;2023-05-27T01:06:56;12.80;92.20
16643;DHT22;8435;52.184;5.406;2023-05-27T01:09:31;12.80;92.40
16643;DHT22;8435;52.184;5.406;2023-05-27T01:12:07;12.70;92.40
16643;DHT22;8435;52.184;5.406;2023-05-27T01:14:38;12.70;92.50
16643;DHT22;8435;52.184;5.406;2023-05-27T01:17:06;12.70;92.30
16643;DHT22;8435;52.184;5.406;2023-05-27T01:19:34;12.60;92.40
16643;DHT22;8435;52.184;5.406;2023-05-27T01:22:02;12.60;92.50
16643;DHT22;8435;52.184;5.406;2023-05-27T01:24:31;12.60;92.60
16643;DHT22;8435;52.184;5.406;2023-05-27T01:26:59;12.60;92.70
16643;DHT22;8435;52.184;5.406;2023-05-27T01:29:31;12.60;92.70
16643;DHT22;8435;52.184;5.406;2023-05-27T01:32:03;12.50;92.80
16643;DHT22;8435;52.184;5.406;2023-05-27T01:34:37;12.50;92.90
16643;DHT22;8435;52.184;5.406;2023-05-27T01:37:09;12.40;93.00
16643;DHT22;8435;52.184;5.406;2023-05-27T01:39:38;12.40;93.00
16643;DHT22;8435;52.184;5.406;2023-05-27T01:42:06;12.40;93.00
16643;DHT22;8435;52.184;5.406;2023-05-27T01:44:34;12.40;93.00
16643;DHT22;8435;52.184;5.406;2023-05-27T01:47:03;12.40;93.10
16643;DHT22;8435;52.184;5.406;2023-05-27T01:49:30;12.30;93.10
16643;DHT22;8435;52.184;5.406;2023-05-27T01:51:57;12.30;93.10
16643;DHT22;8435;52.184;5.406;2023-05-27T01:54:24;12.30;93.20
16643;DHT22;8435;52.184;5.406;2023-05-27T01:56:52;12.30;93.20
16643;DHT22;8435;52.184;5.406;2023-05-27T01:59:19;12.20;93.40
16643;DHT22;8435;52.184;5.406;2023-05-27T02:01:46;12.20;93.50
16643;DHT22;8435;52.184;5.406;2023-05-27T02:04:13;12.20;93.50
16643;DHT22;8435;52.184;5.406;2023-05-27T02:06:40;12.20;93.50
16643;DHT22;8435;52.184;5.406;2023-05-27T02:09:09;12.20;93.50
16643;DHT22;8435;52.184;5.406;2023-05-27T02:11:38;12.10;93.60
16643;DHT22;8435;52.184;5.406;2023-05-27T02:14:06;12.10;93.70
16643;DHT22;8435;52.184;5.406;2023-05-27T02:16:33;12.10;93.80
16643;DHT22;8435;52.184;5.406;2023-05-27T02:19:00;12.10;93.80
16643;DHT22;8435;52.184;5.406;2023-05-27T02:21:28;12.00;93.90
16643;DHT22;8435;52.184;5.406;2023-05-27T02:23:54;12.00;93.90
16643;DHT22;8435;52.184;5.406;2023-05-27T02:26:24;12.00;94.00
16643;DHT22;8435;52.184;5.406;2023-05-27T02:28:51;12.00;94.10
16643;DHT22;8435;52.184;5.406;2023-05-27T02:31:19;12.00;94.10
16643;DHT22;8435;52.184;5.406;2023-05-27T02:33:46;12.00;94.20
16643;DHT22;8435;52.184;5.406;2023-05-27T02:36:12;12.00;94.10
16643;DHT22;8435;52.184;5.406;2023-05-27T02:38:39;11.90;94.20
16643;DHT22;8435;52.184;5.406;2023-05-27T02:41:06;11.90;94.20
16643;DHT22;8435;52.184;5.406;2023-05-27T02:43:33;11.90;94.20
16643;DHT22;8435;52.184;5.406;2023-05-27T02:46:00;11.80;94.30
16643;DHT22;8435;52.184;5.406;2023-05-27T02:48:28;11.80;94.30
16643;DHT22;8435;52.184;5.406;2023-05-27T02:50:57;11.80;94.30
16643;DHT22;8435;52.184;5.406;2023-05-27T02:53:23;11.80;94.40
16643;DHT22;8435;52.184;5.406;2023-05-27T02:55:50;11.80;94.40
16643;DHT22;8435;52.184;5.406;2023-05-27T02:58:17;11.80;94.50
16643;DHT22;8435;52.184;5.406;2023-05-27T03:00:45;11.70;94.50
16643;DHT22;8435;52.184;5.406;2023-05-27T03:03:12;11.70;94.50
16643;DHT22;8435;52.184;5.406;2023-05-27T03:05:46;11.70;94.60
16643;DHT22;8435;52.184;5.406;2023-05-27T03:08:13;11.70;94.90
16643;DHT22;8435;52.184;5.406;2023-05-27T03:10:40;11.70;94.70
16643;DHT22;8435;52.184;5.406;2023-05-27T03:13:07;11.70;94.70
16643;DHT22;8435;52.184;5.406;2023-05-27T03:15:34;11.70;94.80
16643;DHT22;8435;52.184;5.406;2023-05-27T03:18:01;11.70;94.80
16643;DHT22;8435;52.184;5.406;2023-05-27T03:20:28;11.70;94.80
16643;DHT22;8435;52.184;5.406;2023-05-27T03:22:57;11.70;94.90
16643;DHT22;8435;52.184;5.406;2023-05-27T03:25:23;11.60;95.00
16643;DHT22;8435;52.184;5.406;2023-05-27T03:27:50;11.60;94.90
16643;DHT22;8435;52.184;5.406;2023-05-27T03:30:18;11.60;95.00
16643;DHT22;8435;52.184;5.406;2023-05-27T03:32:46;11.60;95.00
16643;DHT22;8435;52.184;5.406;2023-05-27T03:35:12;11.60;95.00
16643;DHT22;8435;52.184;5.406;2023-05-27T03:37:39;11.70;95.10
16643;DHT22;8435;52.184;5.406;2023-05-27T03:40:08;11.60;95.10
16643;DHT22;8435;52.184;5.406;2023-05-27T03:42:36;11.60;95.20
16643;DHT22;8435;52.184;5.406;2023-05-27T03:45:03;11.60;95.10
16643;DHT22;8435;52.184;5.406;2023-05-27T03:47:30;11.60;95.20
16643;DHT22;8435;52.184;5.406;2023-05-27T03:49:56;11.60;95.20
16643;DHT22;8435;52.184;5.406;2023-05-27T03:52:23;11.60;95.20
16643;DHT22;8435;52.184;5.406;2023-05-27T03:54:50;11.60;95.30
16643;DHT22;8435;52.184;5.406;2023-05-27T03:57:18;11.60;95.40
16643;DHT22;8435;52.184;5.406;2023-05-27T03:59:45;11.60;95.50
16643;DHT22;8435;52.184;5.406;2023-05-27T04:02:12;11.60;95.40
16643;DHT22;8435;52.184;5.406;2023-05-27T04:04:40;11.50;95.50
16643;DHT22;8435;52.184;5.406;2023-05-27T04:07:07;11.50;95.60
16643;DHT22;8435;52.184;5.406;2023-05-27T04:09:34;11.60;95.60
16643;DHT22;8435;52.184;5.406;2023-05-27T04:12:00;11.60;95.60
16643;DHT22;8435;52.184;5.406;2023-05-27T04:14:29;11.60;95.60
16643;DHT22;8435;52.184;5.406;2023-05-27T04:16:58;11.60;95.80
16643;DHT22;8435;52.184;5.406;2023-05-27T04:19:25;11.60;95.80
16643;DHT22;8435;52.184;5.406;2023-05-27T04:21:52;11.60;95.80
16643;DHT22;8435;52.184;5.406;2023-05-27T04:24:19;11.60;95.70
16643;DHT22;8435;52.184;5.406;2023-05-27T04:26:45;11.70;95.80
16643;DHT22;8435;52.184;5.406;2023-05-27T04:29:12;11.70;95.80
16643;DHT22;8435;52.184;5.406;2023-05-27T04:31:42;11.70;95.80
16643;DHT22;8435;52.184;5.406;2023-05-27T04:34:10;11.80;95.80
16643;DHT22;8435;52.184;5.406;2023-05-27T04:36:37;11.80;95.80
16643;DHT22;8435;52.184;5.406;2023-05-27T04:39:03;11.80;95.80
16643;DHT22;8435;52.184;5.406;2023-05-27T04:41:30;11.80;95.80
16643;DHT22;8435;52.184;5.406;2023-05-27T04:43:58;11.80;95.80
16643;DHT22;8435;52.184;5.406;2023-05-27T04:46:27;11.80;95.80
16643;DHT22;8435;52.184;5.406;2023-05-27T04:48:56;11.80;96.00
16643;DHT22;8435;52.184;5.406;2023-05-27T04:51:22;11.90;96.10
16643;DHT22;8435;52.184;5.406;2023-05-27T04:53:49;11.90;96.00
16643;DHT22;8435;52.184;5.406;2023-05-27T04:56:19;12.00;96.10
16643;DHT22;8435;52.184;5.406;2023-05-27T04:58:47;12.00;96.00
16643;DHT22;8435;52.184;5.406;2023-05-27T05:01:14;12.10;96.00
16643;DHT22;8435;52.184;5.406;2023-05-27T05:03:44;12.10;96.00
16643;DHT22;8435;52.184;5.406;2023-05-27T05:06:22;12.10;96.00
16643;DHT22;8435;52.184;5.406;2023-05-27T05:08:49;12.10;96.10
16643;DHT22;8435;52.184;5.406;2023-05-27T05:11:17;12.20;96.00
16643;DHT22;8435;52.184;5.406;2023-05-27T05:13:43;12.20;96.00
16643;DHT22;8435;52.184;5.406;2023-05-27T05:16:10;12.30;96.00
16643;DHT22;8435;52.184;5.406;2023-05-27T05:18:37;12.30;96.00
16643;DHT22;8435;52.184;5.406;2023-05-27T05:21:04;12.30;96.30
16643;DHT22;8435;52.184;5.406;2023-05-27T05:23:32;12.30;96.10
16643;DHT22;8435;52.184;5.406;2023-05-27T05:25:59;12.30;96.00
16643;DHT22;8435;52.184;5.406;2023-05-27T05:28:32;12.40;96.00
16643;DHT22;8435;52.184;5.406;2023-05-27T05:30:59;12.40;96.10
16643;DHT22;8435;52.184;5.406;2023-05-27T05:33:26;12.50;96.20
16643;DHT22;8435;52.184;5.406;2023-05-27T05:35:53;12.50;96.20
16643;DHT22;8435;52.184;5.406;2023-05-27T05:38:19;12.60;96.20
16643;DHT22;8435;52.184;5.406;2023-05-27T05:40:48;12.70;96.40
16643;DHT22;8435;52.184;5.406;2023-05-27T05:43:17;12.80;96.60
16643;DHT22;8435;52.184;5.406;2023-05-27T05:45:44;13.00;96.50
16643;DHT22;8435;52.184;5.406;2023-05-27T05:48:11;13.20;96.40
16643;DHT22;8435;52.184;5.406;2023-05-27T05:50:38;13.40;96.30
16643;DHT22;8435;52.184;5.406;2023-05-27T05:53:06;13.50;96.00
16643;DHT22;8435;52.184;5.406;2023-05-27T05:55:33;13.60;95.70
16643;DHT22;8435;52.184;5.406;2023-05-27T05:58:01;13.70;95.60
16643;DHT22;8435;52.184;5.406;2023-05-27T06:00:28;13.70;95.40
16643;DHT22;8435;52.184;5.406;2023-05-27T06:02:55;13.80;95.50
16643;DHT22;8435;52.184;5.406;2023-05-27T06:05:22;13.80;95.40
16643;DHT22;8435;52.184;5.406;2023-05-27T06:07:51;13.90;95.40
16643;DHT22;8435;52.184;5.406;2023-05-27T06:10:18;13.90;95.40
16643;DHT22;8435;52.184;5.406;2023-05-27T06:12:45;14.00;95.30
16643;DHT22;8435;52.184;5.406;2023-05-27T06:15:15;14.00;95.20
16643;DHT22;8435;52.184;5.406;2023-05-27T06:17:41;14.00;95.20
16643;DHT22;8435;52.184;5.406;2023-05-27T06:20:08;14.10;95.20
16643;DHT22;8435;52.184;5.406;2023-05-27T06:22:35;14.10;95.10
16643;DHT22;8435;52.184;5.406;2023-05-27T06:25:03;14.10;95.20
16643;DHT22;8435;52.184;5.406;2023-05-27T06:27:29;14.20;95.20
16643;DHT22;8435;52.184;5.406;2023-05-27T06:29:56;14.20;95.30
16643;DHT22;8435;52.184;5.406;2023-05-27T06:32:27;14.30;95.40
16643;DHT22;8435;52.184;5.406;2023-05-27T06:34:53;14.40;95.70
16643;DHT22;8435;52.184;5.406;2023-05-27T06:37:20;14.60;96.10
16643;DHT22;8435;52.184;5.406;2023-05-27T06:39:50;14.80;96.40
16643;DHT22;8435;52.184;5.406;2023-05-27T06:42:18;15.30;96.50
16643;DHT22;8435;52.184;5.406;2023-05-27T06:44:45;15.80;96.30
16643;DHT22;8435;52.184;5.406;2023-05-27T06:47:12;16.30;96.30
16643;DHT22;8435;52.184;5.406;2023-05-27T06:49:40;16.80;95.80
16643;DHT22;8435;52.184;5.406;2023-05-27T06:52:07;17.40;95.00
16643;DHT22;8435;52.184;5.406;2023-05-27T06:54:35;17.90;94.40
16643;DHT22;8435;52.184;5.406;2023-05-27T06:57:03;18.30;93.80
16643;DHT22;8435;52.184;5.406;2023-05-27T06:59:30;18.80;93.30
16643;DHT22;8435;52.184;5.406;2023-05-27T07:01:56;19.10;92.60
16643;DHT22;8435;52.184;5.406;2023-05-27T07:04:24;19.50;92.30
16643;DHT22;8435;52.184;5.406;2023-05-27T07:06:52;19.80;92.30
16643;DHT22;8435;52.184;5.406;2023-05-27T07:09:19;20.20;91.70
16643;DHT22;8435;52.184;5.406;2023-05-27T07:11:45;20.60;91.40
16643;DHT22;8435;52.184;5.406;2023-05-27T07:14:16;20.90;90.40
16643;DHT22;8435;52.184;5.406;2023-05-27T07:16:42;21.30;89.70
16643;DHT22;8435;52.184;5.406;2023-05-27T07:19:09;21.50;88.90
16643;DHT22;8435;52.184;5.406;2023-05-27T07:21:38;21.80;88.20
16643;DHT22;8435;52.184;5.406;2023-05-27T07:24:09;22.10;86.70
16643;DHT22;8435;52.184;5.406;2023-05-27T07:26:37;22.30;84.10
16643;DHT22;8435;52.184;5.406;2023-05-27T07:29:13;22.50;85.30
16643;DHT22;8435;52.184;5.406;2023-05-27T07:31:40;22.70;84.40
16643;DHT22;8435;52.184;5.406;2023-05-27T07:34:07;23.00;84.40
16643;DHT22;8435;52.184;5.406;2023-05-27T07:36:34;23.20;82.30
16643;DHT22;8435;52.184;5.406;2023-05-27T07:39:01;23.50;81.00
16643;DHT22;8435;52.184;5.406;2023-05-27T07:41:34;23.80;81.90
16643;DHT22;8435;52.184;5.406;2023-05-27T07:44:00;24.10;78.80
16643;DHT22;8435;52.184;5.406;2023-05-27T07:46:27;24.30;79.40
16643;DHT22;8435;52.184;5.406;2023-05-27T07:48:55;24.60;76.90
16643;DHT22;8435;52.184;5.406;2023-05-27T07:51:24;24.80;75.40
16643;DHT22;8435;52.184;5.406;2023-05-27T07:53:51;25.00;73.40
16643;DHT22;8435;52.184;5.406;2023-05-27T07:56:18;25.10;73.40
16643;DHT22;8435;52.184;5.406;2023-05-27T07:58:46;25.20;72.80
16643;DHT22;8435;52.184;5.406;2023-05-27T08:01:13;25.30;72.50
16643;DHT22;8435;52.184;5.406;2023-05-27T08:03:40;25.50;71.40
16643;DHT22;8435;52.184;5.406;2023-05-27T08:06:07;25.60;69.50
16643;DHT22;8435;52.184;5.406;2023-05-27T08:08:33;25.60;68.60
16643;DHT22;8435;52.184;5.406;2023-05-27T08:11:00;25.50;68.30
16643;DHT22;8435;52.184;5.406;2023-05-27T08:13:27;25.40;67.50
16643;DHT22;8435;52.184;5.406;2023-05-27T08:15:55;25.40;67.30
16643;DHT22;8435;52.184;5.406;2023-05-27T08:18:22;25.20;67.30
16643;DHT22;8435;52.184;5.406;2023-05-27T08:20:51;25.10;67.30
16643;DHT22;8435;52.184;5.406;2023-05-27T08:23:18;25.00;66.40
16643;DHT22;8435;52.184;5.406;2023-05-27T08:25:45;25.00;68.50
16643;DHT22;8435;52.184;5.406;2023-05-27T08:28:12;24.90;67.90
16643;DHT22;8435;52.184;5.406;2023-05-27T08:30:42;25.00;67.20
16643;DHT22;8435;52.184;5.406;2023-05-27T08:33:12;25.10;67.00
16643;DHT22;8435;52.184;5.406;2023-05-27T08:35:39;25.10;65.70
16643;DHT22;8435;52.184;5.406;2023-05-27T08:38:06;25.20;66.60
16643;DHT22;8435;52.184;5.406;2023-05-27T08:40:33;25.30;67.20
16643;DHT22;8435;52.184;5.406;2023-05-27T08:43:02;25.40;66.90
16643;DHT22;8435;52.184;5.406;2023-05-27T08:45:29;25.50;66.50
16643;DHT22;8435;52.184;5.406;2023-05-27T08:47:56;25.60;65.60
16643;DHT22;8435;52.184;5.406;2023-05-27T08:50:24;25.70;65.70
16643;DHT22;8435;52.184;5.406;2023-05-27T08:52:53;25.90;65.60
16643;DHT22;8435;52.184;5.406;2023-05-27T08:55:21;26.00;66.10
16643;DHT22;8435;52.184;5.406;2023-05-27T08:57:51;26.00;65.10
16643;DHT22;8435;52.184;5.406;2023-05-27T09:00:18;26.20;64.10
16643;DHT22;8435;52.184;5.406;2023-05-27T09:02:51;26.20;63.60
16643;DHT22;8435;52.184;5.406;2023-05-27T09:05:20;26.30;63.10
16643;DHT22;8435;52.184;5.406;2023-05-27T09:07:48;26.40;63.30
16643;DHT22;8435;52.184;5.406;2023-05-27T09:10:15;26.40;62.20
16643;DHT22;8435;52.184;5.406;2023-05-27T09:12:43;26.40;61.90
16643;DHT22;8435;52.184;5.406;2023-05-27T09:15:11;26.50;61.30
16643;DHT22;8435;52.184;5.406;2023-05-27T09:17:41;26.50;61.30
16643;DHT22;8435;52.184;5.406;2023-05-27T09:20:08;26.40;60.70
16643;DHT22;8435;52.184;5.406;2023-05-27T09:22:37;26.50;61.50
16643;DHT22;8435;52.184;5.406;2023-05-27T09:25:06;26.50;61.80
16643;DHT22;8435;52.184;5.406;2023-05-27T09:27:33;26.60;60.60
16643;DHT22;8435;52.184;5.406;2023-05-27T09:30:07;26.60;60.60
16643;DHT22;8435;52.184;5.406;2023-05-27T09:32:35;26.70;59.70
16643;DHT22;8435;52.184;5.406;2023-05-27T09:35:02;26.70;60.30
16643;DHT22;8435;52.184;5.406;2023-05-27T09:37:31;26.70;59.80
16643;DHT22;8435;52.184;5.406;2023-05-27T09:39:58;26.80;59.60
16643;DHT22;8435;52.184;5.406;2023-05-27T09:42:26;26.80;60.10
16643;DHT22;8435;52.184;5.406;2023-05-27T09:44:54;26.90;58.70
16643;DHT22;8435;52.184;5.406;2023-05-27T09:47:24;26.90;58.70
16643;DHT22;8435;52.184;5.406;2023-05-27T09:49:52;26.90;58.30
16643;DHT22;8435;52.184;5.406;2023-05-27T09:52:23;27.00;58.40
16643;DHT22;8435;52.184;5.406;2023-05-27T09:54:51;27.00;57.90
16643;DHT22;8435;52.184;5.406;2023-05-27T09:57:18;27.00;58.30
16643;DHT22;8435;52.184;5.406;2023-05-27T09:59:50;27.00;58.50
16643;DHT22;8435;52.184;5.406;2023-05-27T10:02:18;27.10;58.20
16643;DHT22;8435;52.184;5.406;2023-05-27T10:04:48;27.10;58.50
16643;DHT22;8435;52.184;5.406;2023-05-27T10:07:17;27.20;58.20
16643;DHT22;8435;52.184;5.406;2023-05-27T10:09:46;27.20;57.40
16643;DHT22;8435;52.184;5.406;2023-05-27T10:12:14;27.20;57.70
16643;DHT22;8435;52.184;5.406;2023-05-27T10:14:43;27.10;57.20
16643;DHT22;8435;52.184;5.406;2023-05-27T10:17:13;27.10;56.60
16643;DHT22;8435;52.184;5.406;2023-05-27T10:19:53;26.90;56.00
16643;DHT22;8435;52.184;5.406;2023-05-27T10:22:21;26.70;56.50
16643;DHT22;8435;52.184;5.406;2023-05-27T10:24:48;26.60;56.90
16643;DHT22;8435;52.184;5.406;2023-05-27T10:27:15;26.40;57.30
16643;DHT22;8435;52.184;5.406;2023-05-27T10:29:42;26.30;57.20
16643;DHT22;8435;52.184;5.406;2023-05-27T10:32:11;26.10;57.50
16643;DHT22;8435;52.184;5.406;2023-05-27T10:34:44;26.00;58.30
16643;DHT22;8435;52.184;5.406;2023-05-27T10:37:19;25.90;57.70
16643;DHT22;8435;52.184;5.406;2023-05-27T10:39:53;25.80;58.10
16643;DHT22;8435;52.184;5.406;2023-05-27T10:42:21;25.70;58.00
16643;DHT22;8435;52.184;5.406;2023-05-27T10:44:48;25.60;58.00
16643;DHT22;8435;52.184;5.406;2023-05-27T10:47:15;25.60;58.50
16643;DHT22;8435;52.184;5.406;2023-05-27T10:49:47;25.50;58.80
16643;DHT22;8435;52.184;5.406;2023-05-27T10:52:16;25.50;57.50
16643;DHT22;8435;52.184;5.406;2023-05-27T10:54:46;25.40;58.30
16643;DHT22;8435;52.184;5.406;2023-05-27T10:57:14;25.30;58.80
16643;DHT22;8435;52.184;5.406;2023-05-27T10:59:48;25.20;58.50
16643;DHT22;8435;52.184;5.406;2023-05-27T11:02:15;25.10;58.40
16643;DHT22;8435;52.184;5.406;2023-05-27T11:04:42;25.10;59.20
16643;DHT22;8435;52.184;5.406;2023-05-27T11:07:17;25.10;59.00
16643;DHT22;8435;52.184;5.406;2023-05-27T11:09:45;25.00;59.00
16643;DHT22;8435;52.184;5.406;2023-05-27T11:12:13;25.00;59.10
16643;DHT22;8435;52.184;5.406;2023-05-27T11:14:41;24.90;59.30
16643;DHT22;8435;52.184;5.406;2023-05-27T11:17:09;24.90;59.40
16643;DHT22;8435;52.184;5.406;2023-05-27T11:19:38;24.90;59.30
16643;DHT22;8435;52.184;5.406;2023-05-27T11:22:05;24.90;59.70
16643;DHT22;8435;52.184;5.406;2023-05-27T11:24:33;24.90;60.10
16643;DHT22;8435;52.184;5.406;2023-05-27T11:27:00;24.90;59.90
16643;DHT22;8435;52.184;5.406;2023-05-27T11:29:27;24.90;60.00
16643;DHT22;8435;52.184;5.406;2023-05-27T11:31:55;24.90;59.50
16643;DHT22;8435;52.184;5.406;2023-05-27T11:34:24;24.90;60.10
16643;DHT22;8435;52.184;5.406;2023-05-27T11:36:54;24.90;60.00
16643;DHT22;8435;52.184;5.406;2023-05-27T11:39:21;24.90;59.70
16643;DHT22;8435;52.184;5.406;2023-05-27T11:41:50;24.90;59.60
16643;DHT22;8435;52.184;5.406;2023-05-27T11:44:18;24.80;59.90
16643;DHT22;8435;52.184;5.406;2023-05-27T11:46:46;24.80;60.70
16643;DHT22;8435;52.184;5.406;2023-05-27T11:49:14;24.80;60.90
16643;DHT22;8435;52.184;5.406;2023-05-27T11:51:42;24.80;60.90
16643;DHT22;8435;52.184;5.406;2023-05-27T11:54:18;24.80;61.20
16643;DHT22;8435;52.184;5.406;2023-05-27T11:56:45;24.80;61.40
16643;DHT22;8435;52.184;5.406;2023-05-27T11:59:13;24.80;61.00
16643;DHT22;8435;52.184;5.406;2023-05-27T12:01:40;24.80;60.60
16643;DHT22;8435;52.184;5.406;2023-05-27T12:04:07;24.80;60.80
16643;DHT22;8435;52.184;5.406;2023-05-27T12:06:36;24.80;60.40
16643;DHT22;8435;52.184;5.406;2023-05-27T12:09:04;24.80;60.90
16643;DHT22;8435;52.184;5.406;2023-05-27T12:11:32;24.70;61.00
16643;DHT22;8435;52.184;5.406;2023-05-27T12:13:59;24.70;61.60
16643;DHT22;8435;52.184;5.406;2023-05-27T12:16:28;24.80;62.20
16643;DHT22;8435;52.184;5.406;2023-05-27T12:18:54;24.80;61.90
16643;DHT22;8435;52.184;5.406;2023-05-27T12:21:21;24.90;61.20
16643;DHT22;8435;52.184;5.406;2023-05-27T12:23:48;24.90;60.80
16643;DHT22;8435;52.184;5.406;2023-05-27T12:26:16;24.90;61.20
16643;DHT22;8435;52.184;5.406;2023-05-27T12:28:43;24.90;61.20
16643;DHT22;8435;52.184;5.406;2023-05-27T12:31:10;24.90;60.90
16643;DHT22;8435;52.184;5.406;2023-05-27T12:33:38;24.90;60.60
16643;DHT22;8435;52.184;5.406;2023-05-27T12:36:05;24.90;60.50
16643;DHT22;8435;52.184;5.406;2023-05-27T12:38:32;24.90;60.10
16643;DHT22;8435;52.184;5.406;2023-05-27T12:40:59;25.00;60.00
16643;DHT22;8435;52.184;5.406;2023-05-27T12:43:26;25.00;60.00
16643;DHT22;8435;52.184;5.406;2023-05-27T12:45:53;25.00;60.00
16643;DHT22;8435;52.184;5.406;2023-05-27T12:48:20;25.00;59.80
16643;DHT22;8435;52.184;5.406;2023-05-27T12:50:48;25.00;59.50
16643;DHT22;8435;52.184;5.406;2023-05-27T12:53:15;25.00;59.70
16643;DHT22;8435;52.184;5.406;2023-05-27T12:55:42;25.00;60.00
16643;DHT22;8435;52.184;5.406;2023-05-27T12:58:10;25.00;60.10
16643;DHT22;8435;52.184;5.406;2023-05-27T13:00:37;25.00;60.20
16643;DHT22;8435;52.184;5.406;2023-05-27T13:03:04;25.00;60.70
16643;DHT22;8435;52.184;5.406;2023-05-27T13:05:30;25.10;61.00
16643;DHT22;8435;52.184;5.406;2023-05-27T13:08:00;25.10;61.00
16643;DHT22;8435;52.184;5.406;2023-05-27T13:10:28;25.10;60.20
16643;DHT22;8435;52.184;5.406;2023-05-27T13:13:04;25.10;59.40
16643;DHT22;8435;52.184;5.406;2023-05-27T13:15:31;25.20;59.60
16643;DHT22;8435;52.184;5.406;2023-05-27T13:17:59;25.20;60.10
16643;DHT22;8435;52.184;5.406;2023-05-27T13:20:28;25.20;60.60
16643;DHT22;8435;52.184;5.406;2023-05-27T13:22:55;25.20;60.60
16643;DHT22;8435;52.184;5.406;2023-05-27T13:25:26;25.30;59.70
16643;DHT22;8435;52.184;5.406;2023-05-27T13:27:54;25.30;60.00
16643;DHT22;8435;52.184;5.406;2023-05-27T13:30:22;25.30;60.30
16643;DHT22;8435;52.184;5.406;2023-05-27T13:32:49;25.30;59.60
16643;DHT22;8435;52.184;5.406;2023-05-27T13:35:16;25.30;59.10
16643;DHT22;8435;52.184;5.406;2023-05-27T13:37:43;25.40;59.80
16643;DHT22;8435;52.184;5.406;2023-05-27T13:40:10;25.40;59.20
16643;DHT22;8435;52.184;5.406;2023-05-27T13:42:39;25.50;58.80
16643;DHT22;8435;52.184;5.406;2023-05-27T13:45:07;25.50;58.30
16643;DHT22;8435;52.184;5.406;2023-05-27T13:47:34;25.50;58.10
16643;DHT22;8435;52.184;5.406;2023-05-27T13:50:00;25.50;57.30
16643;DHT22;8435;52.184;5.406;2023-05-27T13:52:27;25.50;57.80
16643;DHT22;8435;52.184;5.406;2023-05-27T13:54:54;25.50;57.20
16643;DHT22;8435;52.184;5.406;2023-05-27T13:57:23;25.50;56.80
16643;DHT22;8435;52.184;5.406;2023-05-27T13:59:51;25.50;56.90
16643;DHT22;8435;52.184;5.406;2023-05-27T14:02:18;25.40;57.70
16643;DHT22;8435;52.184;5.406;2023-05-27T14:04:45;25.40;58.10
16643;DHT22;8435;52.184;5.406;2023-05-27T14:07:12;25.40;58.40
16643;DHT22;8435;52.184;5.406;2023-05-27T14:09:38;25.40;58.60
16643;DHT22;8435;52.184;5.406;2023-05-27T14:12:05;25.40;58.40
16643;DHT22;8435;52.184;5.406;2023-05-27T14:14:32;25.40;57.90
16643;DHT22;8435;52.184;5.406;2023-05-27T14:17:00;25.40;57.20
16643;DHT22;8435;52.184;5.406;2023-05-27T14:19:27;25.40;57.50
16643;DHT22;8435;52.184;5.406;2023-05-27T14:21:54;25.50;58.40
16643;DHT22;8435;52.184;5.406;2023-05-27T14:24:20;25.50;58.50
16643;DHT22;8435;52.184;5.406;2023-05-27T14:26:47;25.50;58.40
16643;DHT22;8435;52.184;5.406;2023-05-27T14:29:14;25.50;58.30
16643;DHT22;8435;52.184;5.406;2023-05-27T14:31:40;25.50;58.40
16643;DHT22;8435;52.184;5.406;2023-05-27T14:34:09;25.50;58.50
16643;DHT22;8435;52.184;5.406;2023-05-27T14:36:35;25.50;58.60
16643;DHT22;8435;52.184;5.406;2023-05-27T14:39:02;25.50;59.10
16643;DHT22;8435;52.184;5.406;2023-05-27T14:41:32;25.50;59.30
16643;DHT22;8435;52.184;5.406;2023-05-27T14:43:59;25.50;59.10
16643;DHT22;8435;52.184;5.406;2023-05-27T14:46:26;25.50;58.60
16643;DHT22;8435;52.184;5.406;2023-05-27T14:48:52;25.50;58.30
16643;DHT22;8435;52.184;5.406;2023-05-27T14:51:21;25.60;58.30
16643;DHT22;8435;52.184;5.406;2023-05-27T14:53:47;25.60;58.30
16643;DHT22;8435;52.184;5.406;2023-05-27T14:56:14;25.60;58.50
16643;DHT22;8435;52.184;5.406;2023-05-27T14:58:41;25.60;58.50
16643;DHT22;8435;52.184;5.406;2023-05-27T15:01:08;25.60;58.90
16643;DHT22;8435;52.184;5.406;2023-05-27T15:03:36;25.60;58.60
16643;DHT22;8435;52.184;5.406;2023-05-27T15:06:06;25.60;58.50
16643;DHT22;8435;52.184;5.406;2023-05-27T15:08:38;25.60;58.60
16643;DHT22;8435;52.184;5.406;2023-05-27T15:11:06;25.60;58.70
16643;DHT22;8435;52.184;5.406;2023-05-27T15:13:32;25.60;58.30
16643;DHT22;8435;52.184;5.406;2023-05-27T15:15:59;25.60;58.00
16643;DHT22;8435;52.184;5.406;2023-05-27T15:18:26;25.60;58.30
16643;DHT22;8435;52.184;5.406;2023-05-27T15:20:53;25.60;58.80
16643;DHT22;8435;52.184;5.406;2023-05-27T15:23:19;25.60;58.70
16643;DHT22;8435;52.184;5.406;2023-05-27T15:25:48;25.60;58.80
16643;DHT22;8435;52.184;5.406;2023-05-27T15:28:15;25.50;58.50
16643;DHT22;8435;52.184;5.406;2023-05-27T15:30:41;25.60;58.70
16643;DHT22;8435;52.184;5.406;2023-05-27T15:33:08;25.60;58.80
16643;DHT22;8435;52.184;5.406;2023-05-27T15:35:35;25.60;58.60
16643;DHT22;8435;52.184;5.406;2023-05-27T15:38:04;25.60;58.50
16643;DHT22;8435;52.184;5.406;2023-05-27T15:40:31;25.60;58.60
16643;DHT22;8435;52.184;5.406;2023-05-27T15:43:04;25.60;58.60
16643;DHT22;8435;52.184;5.406;2023-05-27T15:45:31;25.60;58.90
16643;DHT22;8435;52.184;5.406;2023-05-27T15:47:58;25.60;58.30